Terminal Aerodrome Forecast
Issued by NWS North Platte, NE

Home | Current Version | Previous Version | Text Only | Print | Product List | Glossary Off
Versions: 1 2 3 4 5 6 7 8 9 10 11 12 13 14 15 16 17

000
FTUS43 KLBF 290800 AAB
TAFVTN
TAF AMD
KVTN 290827Z 2908/3006 33012KT P6SM SCT025 OVC035
      TEMPO 2909/2913 P6SM BKN025 OVC035
     FM291500 33013G19KT P6SM SCT028
     FM291800 32010KT P6SM SCT250
     FM300000 VRB04KT P6SM SCT250=

USA.gov is the U.S. government's official web portal to all federal, state and local government web resources and services.